Aérodrome :
LOGIN :

S'inscrire | Disclaimer

   EN    FR    IT 

 










Légende :    VFR   VFR Marginal   IFR   IFR Intensif   IFR Très Intensif
Visi : 
Plafond : 
>= 8 km
>= 3000ft
5 à 8 km
1000 à 3000 ft
1500m à 5 km
500 à 1000 ft
800 à 1500m
200 à 500 ft
< 800m
< 200 ft
Symboles :   Orages  Brouillard  Fortes neiges  Fortes précipitations  Vent > 20 kt
SIGMETs :   Divers  Orages  Givrage  Turbulence  Onde Orograph.  Cendres Volcan.






- Altitude de l'aérodrome : 598 ft
- Code IATA : BQH


EGKB - Biggin Hill

DERNIER METAR :
  • 161020Z 25010KT 210V290 9999 VCSH FEW010 SCT015 12/11 Q1002

METARs EXPIRÉS :
  • 160950Z 26011G21KT 210V310 9999 VCSH BKN006 13/12 Q1002
  • 160920Z 21010KT 190V250 9999 VCSH SCT010 SCT040 15/14 Q1001
  • 160850Z 21011KT 9999 VCSH BKN007 14/14 Q1001
  • 160820Z 21011KT 190V250 4000 BKN005 16/16 Q1001
  • 160750Z 19015KT 2000 -RADZ BR BKN005 15/15 Q1001
  • 160720Z 17013KT 3000 -RADZ BR BKN005 15/15 Q1000

TAF TAF EGKB
Valide du 16 à 09h jusqu'au 16 à 18h UTC


160800Z 1609/1618 16014KT 9999 BKN005
BECMG 1609/1611 25010KT SCT015
PROB30
TEMPO 1609/1611 BKN014



MET'MAP, la Météo Aéronautique d'un coup d'oeil ! - Copyright ORBIFLY Décembre 2007 - Disclaimer

ORBIFLY MET'MAP TEAM :

Programmation & Développement : Alexandra Zaïnal
Conception & Développement : Baudouin d'Aumeries
Co-Programmation & Développement : Marc-Olivier Méhu
Soutien technique & logistique : Manuel Goepfert

Contact : metmap@orbifly.com




SOURCES & CREDITS :

   NOAA